Park Falls, Wisconsin
Current Conditions -  °F | °C
As of 6:15 AM on Friday 21 Nov 2014 (Local Time) from KPBH Reporting Station
Clear Clear  
Wind Chill: -1°   Ceiling: Unl
Heat Index: -1°   Visibility: 10mi
Dew Point: -5°   Wind: 3mph
Humidity: 85%   Direction: 190°S
Pressure: 30.2"   Gusts: NA
Location:  45.93°N, 90.44°W
Report Text: KPBH 211215Z AUTO 19003KT 10SM CLR M18/M20 A3020 RMK AO2 T11831203
Loading
Personal Weather Stations






























Interactive Weather Map New forecast layout! Learn more

10-Day Weather Forecast

Advertisements
Track Severe Weather on mobile